createdAt,value
2022-08-09T00:00:04.951Z,21.10
2022-08-09T00:02:34.378Z,21.00
2022-08-09T00:06:15.468Z,20.90
2022-08-09T00:07:48.972Z,20.90
2022-08-09T00:10:21.506Z,20.90
2022-08-09T00:12:53.031Z,20.90
2022-08-09T00:15:26.463Z,20.80
2022-08-09T00:18:07.738Z,20.80
2022-08-09T00:20:42.153Z,20.70
2022-08-09T00:23:58.045Z,20.70
2022-08-09T00:26:04.968Z,20.70
2022-08-09T00:28:34.467Z,20.60
2022-08-09T00:31:30.392Z,20.50
2022-08-09T00:33:53.124Z,20.50
2022-08-09T00:36:21.476Z,20.40
2022-08-09T00:38:50.832Z,20.40
2022-08-09T00:44:14.998Z,20.40
2022-08-09T00:44:19.968Z,20.40
2022-08-09T00:46:57.320Z,20.30
2022-08-09T00:49:34.842Z,20.20
2022-08-09T00:52:06.182Z,20.20
2022-08-09T00:54:45.383Z,20.10
2022-08-09T00:57:13.726Z,20.00
2022-08-09T00:59:52.369Z,20.00
2022-08-09T01:02:22.045Z,20.00
2022-08-09T01:05:02.645Z,19.90
2022-08-09T01:08:00.613Z,19.80
2022-08-09T01:10:51.246Z,19.80
2022-08-09T01:13:59.897Z,19.80
2022-08-09T01:16:35.898Z,19.80
2022-08-09T01:19:17.247Z,19.70
2022-08-09T01:22:42.083Z,19.70
2022-08-09T01:25:49.008Z,19.60
2022-08-09T01:28:19.457Z,19.60
2022-08-09T01:30:51.588Z,19.50
2022-08-09T01:33:22.392Z,19.50
2022-08-09T01:36:04.064Z,19.50
2022-08-09T01:38:33.113Z,19.40
2022-08-09T01:41:06.008Z,19.40
2022-08-09T01:43:51.042Z,19.30
2022-08-09T01:46:24.009Z,19.30
2022-08-09T01:48:55.260Z,19.30
2022-08-09T01:51:23.165Z,19.20
2022-08-09T01:53:57.914Z,19.20
2022-08-09T01:56:26.849Z,19.10
2022-08-09T01:58:53.948Z,19.10
2022-08-09T02:01:57.938Z,19.00
2022-08-09T02:04:12.717Z,19.00
2022-08-09T02:07:01.900Z,18.90
2022-08-09T02:09:42.165Z,18.90
2022-08-09T02:12:18.081Z,18.90
2022-08-09T02:14:51.750Z,18.90
2022-08-09T02:17:59.361Z,18.80
2022-08-09T02:20:15.742Z,18.70
2022-08-09T02:22:49.033Z,18.70
2022-08-09T02:25:20.117Z,18.70
2022-08-09T02:28:24.097Z,18.60
2022-08-09T02:30:55.723Z,18.60
2022-08-09T02:33:37.802Z,18.60
2022-08-09T02:36:16.388Z,18.50
2022-08-09T02:38:52.305Z,18.50
2022-08-09T02:41:29.079Z,18.40
2022-08-09T02:44:01.547Z,18.40
2022-08-09T02:46:38.583Z,18.40
2022-08-09T02:49:10.044Z,18.30
2022-08-09T02:51:40.215Z,18.30
2022-08-09T02:54:10.970Z,18.20
2022-08-09T02:56:51.368Z,18.20
2022-08-09T02:59:26.530Z,18.20
2022-08-09T03:02:07.145Z,18.10
2022-08-09T03:04:41.146Z,18.10
2022-08-09T03:07:13.859Z,18.00
2022-08-09T03:09:56.309Z,18.00
2022-08-09T03:12:24.746Z,17.90
2022-08-09T03:14:52.741Z,17.90
2022-08-09T03:17:26.655Z,17.90
2022-08-09T03:20:03.051Z,17.90
2022-08-09T03:22:31.844Z,17.80
2022-08-09T03:25:06.140Z,17.80
2022-08-09T03:27:49.728Z,17.80
2022-08-09T03:30:30.144Z,17.70
2022-08-09T03:33:12.947Z,17.70
2022-08-09T03:36:13.758Z,17.70
2022-08-09T03:38:41.999Z,17.70
2022-08-09T03:41:15.094Z,17.60
2022-08-09T03:44:03.114Z,17.60
2022-08-09T03:46:32.416Z,17.50
2022-08-09T03:49:03.656Z,17.50
2022-08-09T03:51:43.801Z,17.40
2022-08-09T03:54:29.721Z,17.40
2022-08-09T03:56:58.982Z,17.30
2022-08-09T03:59:27.023Z,17.30
2022-08-09T04:02:09.858Z,17.30
2022-08-09T04:04:39.037Z,17.20
2022-08-09T04:07:06.117Z,17.20
2022-08-09T04:09:47.693Z,17.20
2022-08-09T04:12:30.812Z,17.10
2022-08-09T04:15:02.589Z,17.10
2022-08-09T04:17:44.548Z,17.00
2022-08-09T04:20:15.374Z,17.00
2022-08-09T04:22:44.440Z,17.00
2022-08-09T04:25:12.985Z,16.90
2022-08-09T04:27:46.859Z,16.90
2022-08-09T04:30:20.797Z,16.90
2022-08-09T04:32:50.328Z,16.90
2022-08-09T04:35:17.365Z,16.90
2022-08-09T04:37:49.714Z,16.80
2022-08-09T04:40:19.316Z,16.70
2022-08-09T04:42:56.753Z,16.70
2022-08-09T04:45:23.960Z,16.70
2022-08-09T04:48:00.301Z,16.70
2022-08-09T04:50:33.625Z,16.70
2022-08-09T04:53:02.296Z,16.70
2022-08-09T04:55:38.939Z,16.60
2022-08-09T04:58:10.644Z,16.60
2022-08-09T05:00:37.541Z,16.60
2022-08-09T05:03:39.811Z,16.60
2022-08-09T05:06:07.065Z,16.50
2022-08-09T05:08:35.301Z,16.50
2022-08-09T05:11:02.616Z,16.50
2022-08-09T05:13:33.052Z,16.40
2022-08-09T05:16:00.986Z,16.50
2022-08-09T05:18:38.329Z,16.40
2022-08-09T05:21:24.538Z,16.40
2022-08-09T05:24:01.710Z,16.50
2022-08-09T05:26:36.776Z,16.50
2022-08-09T05:29:17.317Z,16.60
2022-08-09T05:31:53.411Z,16.60
2022-08-09T05:34:29.818Z,16.70
2022-08-09T05:36:58.480Z,16.70
2022-08-09T05:39:35.575Z,16.60
2022-08-09T05:42:04.883Z,16.60
2022-08-09T05:44:35.022Z,16.60
2022-08-09T05:47:05.128Z,16.60
2022-08-09T05:50:24.418Z,16.60
2022-08-09T05:52:21.276Z,16.60
2022-08-09T05:54:51.700Z,16.60
2022-08-09T05:57:19.295Z,16.60
2022-08-09T05:59:47.022Z,16.60
2022-08-09T06:02:16.937Z,16.60
2022-08-09T06:04:46.097Z,16.70
2022-08-09T06:07:21.455Z,16.70
2022-08-09T06:09:54.609Z,16.80
2022-08-09T06:12:28.978Z,16.80
2022-08-09T06:15:00.677Z,16.80
2022-08-09T06:17:39.725Z,16.90
2022-08-09T06:20:07.289Z,16.90
2022-08-09T06:22:35.431Z,16.90
2022-08-09T06:25:02.984Z,16.90
2022-08-09T06:27:42.201Z,17.00
2022-08-09T06:30:14.301Z,17.00
2022-08-09T06:32:59.657Z,17.00
2022-08-09T06:35:35.651Z,17.00
2022-08-09T06:38:16.297Z,17.10
2022-08-09T06:40:43.533Z,17.10
2022-08-09T06:43:11.518Z,17.10
2022-08-09T06:46:07.379Z,17.20
2022-08-09T06:48:26.268Z,17.20
2022-08-09T06:50:57.868Z,17.30
2022-08-09T06:53:25.234Z,17.40
2022-08-09T06:55:52.850Z,17.40
2022-08-09T07:00:47.719Z,17.40
2022-08-09T07:01:07.800Z,17.50
2022-08-09T07:03:39.791Z,17.50
2022-08-09T07:06:20.157Z,17.60
2022-08-09T07:08:46.964Z,17.60
2022-08-09T07:11:23.828Z,17.60
2022-08-09T07:14:05.530Z,17.70
2022-08-09T07:16:41.264Z,17.80
2022-08-09T07:19:18.707Z,17.80
2022-08-09T07:21:57.345Z,17.80
2022-08-09T07:24:32.096Z,18.00
2022-08-09T07:27:11.130Z,18.00
2022-08-09T07:29:58.532Z,18.20
2022-08-09T07:32:32.225Z,18.30
2022-08-09T07:35:10.465Z,18.30
2022-08-09T07:37:42.881Z,18.40
2022-08-09T07:40:18.530Z,18.50
2022-08-09T07:42:54.566Z,18.60
2022-08-09T07:45:39.589Z,18.60
2022-08-09T07:48:28.316Z,18.60
2022-08-09T07:51:10.328Z,18.70
2022-08-09T07:54:04.742Z,18.80
2022-08-09T07:56:34.425Z,18.80
2022-08-09T07:59:05.319Z,18.80
2022-08-09T08:01:39.770Z,18.90
2022-08-09T08:04:10.670Z,18.90
2022-08-09T08:06:45.507Z,19.00
2022-08-09T08:09:41.150Z,19.10
2022-08-09T08:12:28.326Z,19.20
2022-08-09T08:14:59.832Z,19.20
2022-08-09T08:17:54.229Z,19.30
2022-08-09T08:20:16.063Z,19.40
2022-08-09T08:22:43.060Z,19.50
2022-08-09T08:25:13.522Z,19.50
2022-08-09T08:27:43.187Z,19.60
2022-08-09T08:30:12.074Z,19.70
2022-08-09T08:32:47.695Z,19.90
2022-08-09T08:35:19.891Z,20.00
2022-08-09T08:38:01.826Z,20.40
2022-08-09T08:40:36.941Z,20.60
2022-08-09T08:43:13.144Z,20.80
2022-08-09T08:45:59.590Z,21.10
2022-08-09T08:48:37.246Z,21.30
2022-08-09T08:51:06.437Z,21.60
2022-08-09T08:53:36.815Z,21.80
2022-08-09T08:56:06.101Z,21.90
2022-08-09T08:58:36.112Z,22.00
2022-08-09T09:01:09.148Z,22.20
2022-08-09T09:03:50.372Z,22.20
2022-08-09T09:06:18.017Z,22.40
2022-08-09T09:08:52.790Z,22.40
2022-08-09T09:11:28.529Z,22.40
2022-08-09T09:13:58.926Z,22.60
2022-08-09T09:16:33.547Z,22.60
2022-08-09T09:21:56.687Z,22.80
2022-08-09T09:24:29.479Z,22.80
2022-08-09T09:26:58.275Z,22.80
2022-08-09T09:30:28.791Z,22.80
2022-08-09T09:32:34.397Z,22.90
2022-08-09T09:35:02.102Z,22.90
2022-08-09T09:37:31.943Z,23.00
2022-08-09T09:40:00.664Z,23.10
2022-08-09T09:42:30.926Z,23.20
2022-08-09T09:44:59.262Z,23.20
2022-08-09T09:47:28.432Z,23.20
2022-08-09T09:50:14.580Z,23.30
2022-08-09T09:52:56.341Z,23.30
2022-08-09T09:55:32.422Z,23.40
2022-08-09T09:58:16.236Z,23.50
2022-08-09T10:00:58.764Z,23.50
2022-08-09T10:03:57.587Z,23.50
2022-08-09T10:06:42.899Z,23.60
2022-08-09T10:09:22.234Z,23.70
2022-08-09T10:12:14.650Z,23.80
2022-08-09T10:14:49.448Z,23.80
2022-08-09T10:17:40.304Z,23.80
2022-08-09T10:20:35.489Z,23.90
2022-08-09T10:23:21.133Z,23.90
2022-08-09T10:26:07.031Z,24.10
2022-08-09T10:28:38.479Z,24.20
2022-08-09T10:34:10.615Z,24.20
2022-08-09T10:36:43.206Z,24.30
2022-08-09T10:39:15.423Z,24.40
2022-08-09T10:41:43.302Z,24.40
2022-08-09T10:44:10.628Z,24.40
2022-08-09T10:46:57.777Z,24.50
2022-08-09T10:49:50.094Z,24.60
2022-08-09T10:52:36.496Z,24.60
2022-08-09T10:55:35.804Z,24.80
2022-08-09T10:58:32.419Z,24.90
2022-08-09T11:03:05.605Z,24.90
2022-08-09T11:04:31.352Z,25.00
2022-08-09T11:07:00.044Z,25.10
2022-08-09T11:09:41.320Z,25.30
2022-08-09T11:12:22.114Z,25.40
2022-08-09T11:15:02.947Z,25.40
2022-08-09T11:17:32.463Z,25.50
2022-08-09T11:20:23.184Z,25.50
2022-08-09T11:22:56.595Z,25.60
2022-08-09T11:25:36.348Z,25.60
2022-08-09T11:28:54.242Z,25.80
2022-08-09T11:31:39.395Z,25.80
2022-08-09T11:34:17.479Z,26.00
2022-08-09T11:36:45.065Z,26.00
2022-08-09T11:39:12.213Z,26.10
2022-08-09T11:41:41.164Z,26.10
2022-08-09T11:44:08.488Z,26.30
2022-08-09T11:46:52.804Z,26.30
2022-08-09T11:49:27.999Z,26.50
2022-08-09T11:53:16.026Z,26.50
2022-08-09T11:55:53.258Z,26.70
2022-08-09T11:58:32.459Z,26.80
2022-08-09T12:01:01.693Z,26.90
2022-08-09T12:03:55.015Z,27.00
2022-08-09T12:06:26.739Z,27.00
2022-08-09T12:09:01.109Z,27.10
2022-08-09T12:11:28.967Z,27.20
2022-08-09T12:14:09.692Z,27.30
2022-08-09T12:16:44.971Z,27.50
2022-08-09T12:19:13.902Z,27.60
2022-08-09T12:21:50.847Z,27.70
2022-08-09T12:24:24.408Z,27.80
2022-08-09T12:29:13.979Z,27.90
2022-08-09T12:30:01.441Z,28.00
2022-08-09T12:32:31.450Z,28.00
2022-08-09T12:35:02.802Z,28.10
2022-08-09T12:37:33.517Z,28.30
2022-08-09T12:40:18.112Z,28.30
2022-08-09T12:42:46.486Z,28.50
2022-08-09T12:45:34.298Z,28.60
2022-08-09T12:48:10.730Z,28.80
2022-08-09T12:50:47.644Z,28.90
2022-08-09T12:53:38.224Z,29.00
2022-08-09T12:56:43.586Z,29.00
2022-08-09T12:59:16.651Z,29.20
2022-08-09T13:01:49.103Z,29.30
2022-08-09T13:04:36.497Z,29.30
2022-08-09T13:07:19.978Z,29.50
2022-08-09T13:10:05.444Z,29.70
2022-08-09T13:12:39.825Z,29.90
2022-08-09T13:15:08.364Z,29.90
2022-08-09T13:18:03.780Z,30.10
2022-08-09T13:20:37.421Z,30.10
2022-08-09T13:24:14.634Z,30.20
2022-08-09T13:26:36.694Z,30.20
2022-08-09T13:29:07.638Z,30.40
2022-08-09T13:32:15.903Z,30.70
2022-08-09T13:34:21.940Z,30.90
2022-08-09T13:36:52.237Z,31.00
2022-08-09T13:41:18.853Z,30.90
2022-08-09T13:42:11.964Z,31.00
2022-08-09T13:44:40.167Z,31.20
2022-08-09T13:47:26.757Z,31.20
2022-08-09T13:50:12.518Z,31.20
2022-08-09T13:52:47.593Z,31.40
2022-08-09T13:55:15.639Z,31.50
2022-08-09T13:57:56.203Z,31.60
2022-08-09T14:00:28.335Z,31.90
2022-08-09T14:03:03.222Z,32.00
2022-08-09T14:05:56.956Z,31.90
2022-08-09T14:08:29.791Z,32.20
2022-08-09T14:10:57.245Z,32.30
2022-08-09T14:13:27.948Z,32.60
2022-08-09T14:16:15.691Z,32.80
2022-08-09T14:18:49.604Z,32.90
2022-08-09T14:21:22.564Z,33.00
2022-08-09T14:23:54.246Z,33.00
2022-08-09T14:26:25.389Z,33.10
2022-08-09T14:28:58.035Z,33.10
2022-08-09T14:31:50.187Z,33.30
2022-08-09T14:34:12.598Z,33.30
2022-08-09T14:36:42.872Z,33.60
2022-08-09T14:39:11.745Z,33.80
2022-08-09T14:41:40.010Z,33.70
2022-08-09T14:44:09.649Z,33.60
2022-08-09T14:47:03.244Z,33.80
2022-08-09T14:49:26.784Z,34.00
2022-08-09T14:51:58.804Z,34.00
2022-08-09T14:54:27.508Z,34.20
2022-08-09T14:56:58.698Z,34.30
2022-08-09T14:59:29.149Z,34.30
2022-08-09T15:01:57.481Z,34.60
2022-08-09T15:04:25.502Z,34.70
2022-08-09T15:06:52.515Z,34.50
2022-08-09T15:10:03.216Z,34.30
2022-08-09T15:12:09.861Z,34.60
2022-08-09T15:14:39.098Z,34.80
2022-08-09T15:17:10.023Z,34.80
2022-08-09T15:19:59.133Z,34.70
2022-08-09T15:22:26.186Z,34.80
2022-08-09T15:24:56.772Z,35.00
2022-08-09T15:27:23.591Z,35.40
2022-08-09T15:30:55.874Z,35.30
2022-08-09T15:32:41.247Z,35.30
2022-08-09T15:35:40.509Z,35.40
2022-08-09T15:38:11.811Z,35.60
2022-08-09T15:40:43.727Z,35.60
2022-08-09T15:43:13.624Z,35.60
2022-08-09T15:46:07.807Z,35.70
2022-08-09T15:48:30.840Z,35.90
2022-08-09T15:51:02.442Z,35.70
2022-08-09T15:54:05.443Z,35.70
2022-08-09T15:56:34.812Z,35.80
2022-08-09T15:59:02.628Z,36.20
2022-08-09T16:01:29.429Z,36.30
2022-08-09T16:03:58.508Z,36.30
2022-08-09T16:06:34.791Z,36.40
2022-08-09T16:09:04.977Z,36.50
2022-08-09T16:11:33.043Z,36.40
2022-08-09T16:14:06.961Z,36.60
2022-08-09T16:16:41.945Z,36.40
2022-08-09T16:19:15.482Z,36.20
2022-08-09T16:21:48.731Z,36.50
2022-08-09T16:24:32.909Z,36.40
2022-08-09T16:27:01.064Z,36.20
2022-08-09T16:29:37.323Z,36.40
2022-08-09T16:32:20.274Z,36.30
2022-08-09T16:34:57.717Z,36.30
2022-08-09T16:37:53.502Z,36.70
2022-08-09T16:40:13.986Z,37.00
2022-08-09T16:42:47.882Z,36.80
2022-08-09T16:45:19.647Z,36.70
2022-08-09T16:48:43.169Z,36.90
2022-08-09T16:50:38.278Z,36.90
2022-08-09T16:53:08.944Z,36.90
2022-08-09T16:56:00.310Z,36.70
2022-08-09T16:58:25.882Z,36.90
2022-08-09T17:00:52.883Z,36.80
2022-08-09T17:03:22.932Z,37.10
2022-08-09T17:06:06.588Z,37.30
2022-08-09T17:08:59.046Z,37.10
2022-08-09T17:11:40.133Z,36.80
2022-08-09T17:14:25.586Z,36.80
2022-08-09T17:17:02.266Z,36.90
2022-08-09T17:19:46.655Z,36.60
2022-08-09T17:22:14.186Z,36.30
2022-08-09T17:24:47.427Z,35.90
2022-08-09T17:27:15.492Z,35.80
2022-08-09T17:29:45.608Z,35.60
2022-08-09T17:32:15.604Z,35.60
2022-08-09T17:35:07.334Z,35.40
2022-08-09T17:37:29.897Z,35.40
2022-08-09T17:39:56.812Z,35.30
2022-08-09T17:42:42.391Z,35.20
2022-08-09T17:45:15.886Z,35.10
2022-08-09T17:48:02.889Z,34.90
2022-08-09T17:50:36.904Z,34.80
2022-08-09T17:53:10.375Z,34.70
2022-08-09T17:55:51.990Z,34.80
2022-08-09T17:58:24.240Z,34.80
2022-08-09T18:00:58.485Z,34.90
2022-08-09T18:03:28.630Z,34.70
2022-08-09T18:05:57.350Z,34.50
2022-08-09T18:08:28.148Z,34.50
2022-08-09T18:11:01.755Z,34.20
2022-08-09T18:13:43.458Z,34.20
2022-08-09T18:16:29.194Z,34.30
2022-08-09T18:19:03.434Z,34.20
2022-08-09T18:21:31.899Z,33.70
2022-08-09T18:24:14.257Z,33.40
2022-08-09T18:26:46.835Z,33.40
2022-08-09T18:30:42.269Z,33.20
2022-08-09T18:32:05.536Z,33.30
2022-08-09T18:34:35.271Z,33.40
2022-08-09T18:37:10.486Z,33.10
2022-08-09T18:39:55.675Z,32.90
2022-08-09T18:42:29.341Z,32.70
2022-08-09T18:44:56.968Z,32.70
2022-08-09T18:47:27.606Z,33.00
2022-08-09T18:50:03.050Z,32.80
2022-08-09T18:52:35.009Z,32.80
2022-08-09T18:55:03.888Z,32.90
2022-08-09T18:57:38.638Z,32.90
2022-08-09T19:00:11.210Z,32.60
2022-08-09T19:02:43.601Z,32.10
2022-08-09T19:05:20.372Z,32.00
2022-08-09T19:08:03.882Z,32.10
2022-08-09T19:10:39.033Z,31.90
2022-08-09T19:13:23.539Z,31.80
2022-08-09T19:15:57.099Z,31.80
2022-08-09T19:18:32.974Z,31.80
2022-08-09T19:21:01.232Z,31.80
2022-08-09T19:24:31.981Z,31.50
2022-08-09T19:26:16.831Z,31.40
2022-08-09T19:28:48.847Z,31.40
2022-08-09T19:31:16.789Z,31.50
2022-08-09T19:33:44.196Z,31.50
2022-08-09T19:36:11.814Z,31.30
2022-08-09T19:38:40.704Z,31.20
2022-08-09T19:41:10.267Z,31.00
2022-08-09T19:44:02.006Z,31.00
2022-08-09T19:46:35.384Z,31.00
2022-08-09T19:50:08.381Z,31.00
2022-08-09T19:51:58.025Z,30.90
2022-08-09T19:54:28.233Z,30.90
2022-08-09T19:56:56.040Z,30.90
2022-08-09T19:59:59.595Z,30.90
2022-08-09T20:04:06.908Z,30.70
2022-08-09T20:04:59.663Z,30.60
2022-08-09T20:07:57.101Z,30.30
2022-08-09T20:10:17.038Z,30.40
2022-08-09T20:12:45.830Z,30.30
2022-08-09T20:16:34.926Z,30.20
2022-08-09T20:18:00.109Z,30.20
2022-08-09T20:20:27.219Z,30.10
2022-08-09T20:22:56.439Z,30.10
2022-08-09T20:25:24.142Z,30.10
2022-08-09T20:27:52.348Z,29.90
2022-08-09T20:30:23.732Z,29.80
2022-08-09T20:32:52.453Z,29.70
2022-08-09T20:35:23.712Z,29.60
2022-08-09T20:38:22.134Z,29.50
2022-08-09T20:40:49.170Z,29.30
2022-08-09T20:43:24.323Z,29.40
2022-08-09T20:45:59.137Z,29.30
2022-08-09T20:48:31.147Z,29.10
2022-08-09T20:50:59.742Z,28.90
2022-08-09T20:53:37.478Z,28.90
2022-08-09T20:56:08.607Z,28.80
2022-08-09T20:58:36.203Z,28.70
2022-08-09T21:01:32.538Z,28.40
2022-08-09T21:05:49.267Z,28.30
2022-08-09T21:06:42.844Z,28.10
2022-08-09T21:09:14.314Z,27.90
2022-08-09T21:14:33.098Z,27.80
2022-08-09T21:18:11.206Z,27.80
2022-08-09T21:20:17.758Z,27.70
2022-08-09T21:22:41.532Z,27.60
2022-08-09T21:25:28.122Z,27.40
2022-08-09T21:28:05.889Z,27.40
2022-08-09T21:30:37.017Z,27.30
2022-08-09T21:33:08.104Z,27.10
2022-08-09T21:35:40.939Z,27.10
2022-08-09T21:38:30.810Z,27.10
2022-08-09T21:40:59.322Z,27.00
2022-08-09T21:43:31.445Z,26.90
2022-08-09T21:46:13.783Z,26.70
2022-08-09T21:48:42.416Z,26.70
2022-08-09T21:51:14.010Z,26.70
2022-08-09T21:53:41.513Z,26.60
2022-08-09T21:56:15.127Z,26.40
2022-08-09T21:58:55.563Z,26.50
2022-08-09T22:01:26.015Z,26.50
2022-08-09T22:04:09.323Z,26.40
2022-08-09T22:06:36.922Z,26.30
2022-08-09T22:09:05.228Z,26.30
2022-08-09T22:12:09.222Z,26.20
2022-08-09T22:14:28.152Z,26.10
2022-08-09T22:16:55.403Z,26.20
2022-08-09T22:19:53.448Z,26.10
2022-08-09T22:22:10.372Z,26.10
2022-08-09T22:24:38.009Z,26.00
2022-08-09T22:27:25.029Z,25.90
2022-08-09T22:29:52.416Z,25.90
2022-08-09T22:32:29.502Z,25.80
2022-08-09T22:35:02.211Z,25.70
2022-08-09T22:37:40.061Z,25.60
2022-08-09T22:40:07.892Z,25.50
2022-08-09T22:42:34.903Z,25.40
2022-08-09T22:48:06.113Z,25.30
2022-08-09T22:48:29.475Z,25.20
2022-08-09T22:50:35.484Z,25.10
2022-08-09T22:53:04.418Z,25.00
2022-08-09T22:56:06.483Z,25.00
2022-08-09T22:58:20.394Z,24.90
2022-08-09T23:01:02.298Z,24.80
2022-08-09T23:03:31.241Z,24.80
2022-08-09T23:06:34.713Z,24.60
2022-08-09T23:09:05.445Z,24.50
2022-08-09T23:11:32.613Z,24.50
2022-08-09T23:13:59.730Z,24.50
2022-08-09T23:16:26.580Z,24.50
2022-08-09T23:18:53.451Z,24.40
2022-08-09T23:21:26.102Z,24.30
2022-08-09T23:24:06.371Z,24.20
2022-08-09T23:26:38.186Z,24.10
2022-08-09T23:29:06.192Z,23.90
2022-08-09T23:31:33.193Z,23.80
2022-08-09T23:34:00.316Z,23.70
2022-08-09T23:36:27.238Z,23.50
2022-08-09T23:38:54.097Z,23.40
2022-08-09T23:41:27.953Z,23.40
2022-08-09T23:43:55.333Z,23.30
2022-08-09T23:46:22.429Z,23.30
2022-08-09T23:48:49.358Z,23.30
2022-08-09T23:51:16.269Z,23.20
2022-08-09T23:53:43.242Z,23.20
2022-08-09T23:56:10.199Z,23.10
2022-08-09T23:58:37.015Z,23.00
